Time;durP1;ratioP1;P1;durP2;ratioP2;P2;SDS_P1;SDS_P2;PMS_P1;PMS_P2;Temp;Humidity;BMP_temperature;BMP_pressure;BME280_temperature;BME280_humidity;BME280_pressure;Samples;Min_cycle;Max_cycle;Signal;HPM_P1;HPM_P2
2024/03/15 00:02:15;;;;;;;0.75;0.40;;;12.20;1.00;;;;;;5114201;27;20414;-60
2024/03/15 00:04:42;;;;;;;0.80;0.50;;;12.20;99.90;;;;;;5116108;27;20905;-59
2024/03/15 00:07:09;;;;;;;0.90;0.50;;;12.10;99.90;;;;;;5116727;27;20485;-59
2024/03/15 00:09:36;;;;;;;0.70;0.40;;;12.10;99.90;;;;;;5114620;27;20406;-60
2024/03/15 00:12:05;;;;;;;0.70;0.50;;;12.00;99.90;;;;;;5116417;27;20481;-60
2024/03/15 00:14:32;;;;;;;0.70;0.50;;;12.00;99.90;;;;;;5116671;27;20536;-60
2024/03/15 00:16:59;;;;;;;0.88;0.50;;;12.00;99.90;;;;;;5114953;27;20432;-59
2024/03/15 00:19:25;;;;;;;0.80;0.50;;;12.00;99.90;;;;;;5116448;27;20438;-60
2024/03/15 00:21:52;;;;;;;1.70;0.50;;;12.00;99.90;;;;;;5115456;27;20433;-60
2024/03/15 00:24:19;;;;;;;1.50;0.50;;;12.00;99.90;;;;;;5124935;27;20412;-60
2024/03/15 00:26:47;;;;;;;1.40;0.50;;;12.00;99.90;;;;;;5115364;27;20410;-60
2024/03/15 00:29:14;;;;;;;0.90;0.50;;;12.00;99.90;;;;;;5123361;27;20865;-60
2024/03/15 00:31:41;;;;;;;0.80;0.50;;;12.00;99.90;;;;;;5116579;27;20511;-60
2024/03/15 00:34:08;;;;;;;1.17;0.57;;;12.00;99.90;;;;;;5115184;27;20414;-60
2024/03/15 00:36:35;;;;;;;0.73;0.50;;;12.10;99.90;;;;;;5115935;27;20729;-60
2024/03/15 00:39:03;;;;;;;0.80;0.60;;;12.00;99.90;;;;;;5114653;27;20432;-60
2024/03/15 00:41:30;;;;;;;0.80;0.50;;;12.00;99.90;;;;;;5113141;27;20427;-60
2024/03/15 00:43:58;;;;;;;1.00;0.50;;;12.00;99.90;;;;;;5114790;27;20405;-60
2024/03/15 00:46:25;;;;;;;1.30;0.57;;;12.00;99.90;;;;;;5114066;27;20685;-60
2024/03/15 00:48:53;;;;;;;0.80;0.60;;;11.90;99.90;;;;;;5121845;27;20478;-60
2024/03/15 00:51:20;;;;;;;1.00;0.50;;;11.90;99.90;;;;;;5113396;27;20750;-60
2024/03/15 00:53:47;;;;;;;0.80;0.50;;;11.90;99.90;;;;;;5114742;27;20700;-60
2024/03/15 00:56:14;;;;;;;0.80;0.50;;;11.80;99.90;;;;;;5121856;27;20416;-60
2024/03/15 00:58:41;;;;;;;0.80;0.50;;;11.80;99.90;;;;;;5112466;27;20434;-60
2024/03/15 01:01:08;;;;;;;0.77;0.50;;;11.80;99.90;;;;;;5110692;27;20456;-60
2024/03/15 01:03:35;;;;;;;1.00;0.60;;;11.70;99.90;;;;;;5113513;27;20531;-60
2024/03/15 01:06:02;;;;;;;1.20;0.50;;;11.70;99.90;;;;;;5113973;27;20445;-60
2024/03/15 01:08:29;;;;;;;0.80;0.52;;;11.70;99.90;;;;;;5114223;27;20721;-60
2024/03/15 01:10:56;;;;;;;0.77;0.50;;;11.70;99.90;;;;;;5113449;27;20418;-60
2024/03/15 01:13:24;;;;;;;1.00;0.60;;;11.70;99.90;;;;;;5114699;27;20409;-60
2024/03/15 01:15:51;;;;;;;0.80;0.57;;;11.70;99.90;;;;;;5114746;27;20421;-60
2024/03/15 01:18:18;;;;;;;1.20;0.50;;;11.70;99.90;;;;;;5115590;27;20456;-60
2024/03/15 01:20:45;;;;;;;0.90;0.50;;;11.70;99.90;;;;;;5121064;27;20420;-60
2024/03/15 01:23:12;;;;;;;0.90;0.50;;;11.70;99.90;;;;;;5115762;27;20711;-61
2024/03/15 01:25:39;;;;;;;0.90;0.60;;;11.80;99.90;;;;;;5123761;27;20412;-60
2024/03/15 01:28:06;;;;;;;0.70;0.50;;;11.80;99.90;;;;;;5114876;27;20434;-60
2024/03/15 01:30:34;;;;;;;0.90;0.60;;;11.80;99.90;;;;;;5113264;27;20411;-60
2024/03/15 01:33:01;;;;;;;1.03;0.50;;;11.80;99.90;;;;;;5114625;27;20790;-60
2024/03/15 01:35:32;;;;;;;1.08;0.60;;;11.80;99.90;;;;;;5115538;27;20698;-60
2024/03/15 01:38:00;;;;;;;1.10;0.50;;;11.90;99.90;;;;;;5114364;27;20540;-60
2024/03/15 01:40:27;;;;;;;1.70;0.50;;;11.90;99.90;;;;;;5114497;27;20790;-60
2024/03/15 01:42:54;;;;;;;0.73;0.50;;;11.90;99.90;;;;;;5115176;27;20405;-60
2024/03/15 01:45:21;;;;;;;1.10;0.60;;;11.90;99.90;;;;;;5113393;27;20754;-60
2024/03/15 01:47:48;;;;;;;0.90;0.50;;;11.90;99.90;;;;;;5113347;27;20470;-60
2024/03/15 01:50:16;;;;;;;0.80;0.50;;;11.90;99.90;;;;;;5115140;27;20409;-60
2024/03/15 01:52:43;;;;;;;1.63;0.50;;;11.80;99.90;;;;;;5113935;27;20692;-60
2024/03/15 01:55:10;;;;;;;0.80;0.50;;;11.80;99.90;;;;;;5113427;27;20408;-60
2024/03/15 01:57:37;;;;;;;0.90;0.50;;;11.80;99.90;;;;;;5114485;27;20465;-60
2024/03/15 02:00:06;;;;;;;0.80;0.50;;;11.80;99.90;;;;;;5111657;27;20471;-60
2024/03/15 02:02:33;;;;;;;0.80;0.50;;;11.80;99.90;;;;;;5114291;27;20467;-60
2024/03/15 02:05:01;;;;;;;1.05;0.50;;;11.80;99.90;;;;;;5104426;28;20507;-60
2024/03/15 02:07:28;;;;;;;0.80;0.50;;;11.70;99.90;;;;;;5098779;28;20421;-60
2024/03/15 02:09:55;;;;;;;0.90;0.60;;;11.70;99.90;;;;;;5098400;28;20888;-60
2024/03/15 02:12:23;;;;;;;1.60;0.50;;;11.70;99.90;;;;;;5098437;28;20711;-60
2024/03/15 02:14:50;;;;;;;1.00;0.50;;;11.70;99.90;;;;;;5098516;28;20495;-60
2024/03/15 02:17:17;;;;;;;2.38;0.50;;;11.70;99.90;;;;;;5098040;28;20510;-60
2024/03/15 02:19:45;;;;;;;0.70;0.40;;;11.70;99.90;;;;;;5097716;28;20472;-60
2024/03/15 02:22:12;;;;;;;1.40;0.52;;;11.70;99.90;;;;;;5097819;28;20400;-60
2024/03/15 02:24:40;;;;;;;0.77;0.50;;;11.70;99.90;;;;;;5092070;28;20765;-60
2024/03/15 02:27:08;;;;;;;1.10;0.60;;;11.60;99.90;;;;;;5097239;28;20816;-60
2024/03/15 02:29:35;;;;;;;0.70;0.50;;;11.60;99.90;;;;;;5097058;28;20424;-60
2024/03/15 02:32:02;;;;;;;1.00;0.50;;;11.70;99.90;;;;;;5098016;28;20432;-60
2024/03/15 02:34:30;;;;;;;2.30;0.60;;;11.70;99.90;;;;;;5099260;28;20488;-60
2024/03/15 02:36:57;;;;;;;0.82;0.50;;;11.70;99.90;;;;;;5099609;28;20404;-60
2024/03/15 02:39:24;;;;;;;0.70;0.50;;;11.60;99.90;;;;;;5099548;28;20853;-60
2024/03/15 02:41:51;;;;;;;1.20;0.50;;;11.60;99.90;;;;;;5099306;28;20420;-60
2024/03/15 02:44:19;;;;;;;0.70;0.50;;;11.60;99.90;;;;;;5095369;28;20869;-60
2024/03/15 02:46:46;;;;;;;1.17;0.50;;;11.60;99.90;;;;;;5097180;28;20442;-60
2024/03/15 02:49:13;;;;;;;1.40;0.40;;;11.60;99.90;;;;;;5098920;28;20738;-60
2024/03/15 02:51:41;;;;;;;0.90;0.40;;;11.60;99.90;;;;;;5096136;28;20411;-60
2024/03/15 02:54:08;;;;;;;0.80;0.50;;;11.60;99.90;;;;;;5099268;28;20420;-60
2024/03/15 02:56:35;;;;;;;1.80;0.50;;;11.50;99.90;;;;;;5098839;28;20534;-60
2024/03/15 02:59:03;;;;;;;0.82;0.40;;;11.50;99.90;;;;;;5098582;28;20519;-60
2024/03/15 03:01:29;;;;;;;0.65;0.40;;;11.50;99.90;;;;;;5095879;28;20756;-60
2024/03/15 03:03:57;;;;;;;0.70;0.40;;;11.50;99.90;;;;;;5098578;28;20411;-60
2024/03/15 03:06:24;;;;;;;0.80;0.50;;;11.50;1.00;;;;;;5090137;28;20421;-60
2024/03/15 03:08:51;;;;;;;0.80;0.50;;;11.40;1.00;;;;;;5087919;28;20473;-60
2024/03/15 03:11:18;;;;;;;1.60;0.40;;;11.50;1.00;;;;;;5087750;28;20418;-60
2024/03/15 03:13:45;;;;;;;0.90;0.43;;;11.40;1.00;;;;;;5088656;28;20473;-60
2024/03/15 03:16:12;;;;;;;0.60;0.40;;;11.40;1.00;;;;;;5093200;28;20420;-60
2024/03/15 03:18:39;;;;;;;0.80;0.50;;;11.40;1.00;;;;;;5110324;28;20586;-60
2024/03/15 03:21:07;;;;;;;0.70;0.40;;;11.50;1.00;;;;;;5090582;28;20523;-60
2024/03/15 03:23:34;;;;;;;0.80;0.50;;;11.50;1.00;;;;;;5087177;28;20416;-60
2024/03/15 03:26:03;;;;;;;0.90;0.40;;;11.60;1.00;;;;;;5087967;28;20422;-60
2024/03/15 03:28:30;;;;;;;1.30;0.50;;;11.70;1.00;;;;;;5088095;28;20416;-60
2024/03/15 03:30:57;;;;;;;1.08;0.47;;;11.60;1.00;;;;;;5089734;28;20400;-60
2024/03/15 03:33:25;;;;;;;0.70;0.40;;;11.60;1.00;;;;;;5088288;28;20820;-60
2024/03/15 03:35:52;;;;;;;0.63;0.40;;;11.60;1.00;;;;;;5090579;28;21071;-60
2024/03/15 03:38:19;;;;;;;0.80;0.40;;;11.60;1.00;;;;;;5087124;28;20437;-60
2024/03/15 03:40:46;;;;;;;0.80;0.50;;;11.50;1.00;;;;;;5088576;28;20422;-60
2024/03/15 03:43:14;;;;;;;1.80;0.50;;;11.60;1.00;;;;;;5089374;28;20437;-60
2024/03/15 03:45:43;;;;;;;0.80;0.50;;;11.50;1.00;;;;;;5087162;28;20505;-60
2024/03/15 03:48:10;;;;;;;0.90;0.40;;;11.50;1.00;;;;;;5088755;28;20541;-60
2024/03/15 03:50:37;;;;;;;0.80;0.60;;;11.50;1.00;;;;;;5089244;28;20424;-61
2024/03/15 03:53:04;;;;;;;0.80;0.50;;;11.50;1.00;;;;;;5087884;28;20433;-59
2024/03/15 03:55:33;;;;;;;0.70;0.40;;;11.50;1.00;;;;;;5087850;28;20794;-59
2024/03/15 03:58:00;;;;;;;0.70;0.50;;;11.60;1.00;;;;;;5087388;28;20422;-60
2024/03/15 04:00:27;;;;;;;0.90;0.40;;;11.50;1.00;;;;;;5087654;28;20469;-61
2024/03/15 04:02:54;;;;;;;0.70;0.40;;;11.50;1.00;;;;;;5089000;28;20421;-61
2024/03/15 04:05:21;;;;;;;0.95;0.50;;;11.50;1.00;;;;;;5089104;28;20420;-61
2024/03/15 04:07:48;;;;;;;0.80;0.40;;;11.50;1.00;;;;;;5087201;28;20422;-61
2024/03/15 04:10:15;;;;;;;0.70;0.40;;;11.50;1.00;;;;;;5085176;28;20409;-61
2024/03/15 04:12:43;;;;;;;0.60;0.40;;;11.50;1.00;;;;;;5087252;28;20412;-59
2024/03/15 04:15:11;;;;;;;1.00;0.50;;;11.50;1.00;;;;;;5089096;28;20859;-59
2024/03/15 04:17:38;;;;;;;0.80;0.50;;;11.50;1.00;;;;;;5104468;28;20481;-60
2024/03/15 04:20:12;;;;;;;0.73;0.40;;;11.50;1.00;;;;;;5086589;28;20928;-60
2024/03/15 04:22:42;;;;;;;0.70;0.47;;;11.50;1.00;;;;;;5086688;28;20459;-60
2024/03/15 04:25:09;;;;;;;0.70;0.40;;;11.50;1.00;;;;;;5087694;28;20423;-60
2024/03/15 04:27:36;;;;;;;0.90;0.50;;;11.50;1.00;;;;;;5086216;28;20413;-60
2024/03/15 04:30:13;;;;;;;1.92;0.40;;;11.50;1.00;;;;;;5088537;28;20511;-60
2024/03/15 04:32:40;;;;;;;0.73;0.40;;;11.50;1.00;;;;;;5087308;28;20452;-60
2024/03/15 04:35:07;;;;;;;0.80;0.40;;;11.50;1.00;;;;;;5089804;28;20974;-60
2024/03/15 04:37:35;;;;;;;0.70;0.40;;;11.50;99.90;;;;;;5090147;28;20433;-61
2024/03/15 04:40:04;;;;;;;0.90;0.40;;;11.50;99.90;;;;;;5089341;28;20430;-60
2024/03/15 04:42:32;;;;;;;0.63;0.40;;;11.50;99.90;;;;;;5099432;28;20844;-60
2024/03/15 04:45:03;;;;;;;1.25;0.50;;;11.50;99.90;;;;;;5091555;28;20830;-60
2024/03/15 04:47:30;;;;;;;0.75;0.43;;;11.50;99.90;;;;;;5091486;28;20521;-60
2024/03/15 04:49:57;;;;;;;0.80;0.40;;;11.50;99.90;;;;;;5088103;28;20885;-60
2024/03/15 04:52:24;;;;;;;0.90;0.40;;;11.50;99.90;;;;;;5090937;28;20408;-60
2024/03/15 04:54:52;;;;;;;1.30;0.40;;;11.50;99.90;;;;;;5092028;28;20432;-60
2024/03/15 04:57:21;;;;;;;0.60;0.40;;;11.50;99.90;;;;;;5092097;28;20473;-60
2024/03/15 04:59:49;;;;;;;0.60;0.40;;;11.50;99.90;;;;;;5090953;28;20483;-60
2024/03/15 05:02:16;;;;;;;1.17;0.40;;;11.50;99.90;;;;;;5089141;28;20476;-60
2024/03/15 05:04:43;;;;;;;0.70;0.40;;;11.50;99.90;;;;;;5098237;27;20886;-60
2024/03/15 05:07:12;;;;;;;1.50;0.40;;;11.50;99.90;;;;;;5114934;27;20463;-60
2024/03/15 05:09:39;;;;;;;0.60;0.40;;;11.40;99.90;;;;;;5113432;27;20445;-60
2024/03/15 05:12:08;;;;;;;0.70;0.40;;;11.40;99.90;;;;;;5114796;27;20420;-61
2024/03/15 05:14:35;;;;;;;0.70;0.40;;;11.40;99.90;;;;;;5122636;27;20475;-60
2024/03/15 05:17:03;;;;;;;0.65;0.40;;;11.40;99.90;;;;;;5113921;27;20427;-60
2024/03/15 05:19:30;;;;;;;0.70;0.40;;;11.40;99.90;;;;;;5115864;27;20432;-61
2024/03/15 05:21:57;;;;;;;0.80;0.40;;;11.40;67.20;;;;;;5113421;27;20441;-61
2024/03/15 05:24:24;;;;;;;0.70;0.38;;;11.40;1.00;;;;;;5114279;27;20511;-59
2024/03/15 05:26:51;;;;;;;0.70;0.50;;;11.40;99.90;;;;;;5114256;27;20875;-61
2024/03/15 05:29:18;;;;;;;1.20;0.40;;;11.40;1.00;;;;;;5113495;27;20410;-61
2024/03/15 05:31:46;;;;;;;1.30;0.40;;;11.40;1.00;;;;;;5114843;27;20416;-60
2024/03/15 05:34:15;;;;;;;2.22;0.50;;;11.50;1.00;;;;;;5114555;27;20421;-61
2024/03/15 05:36:43;;;;;;;0.98;0.40;;;11.50;1.00;;;;;;5113186;27;20410;-61
2024/03/15 05:39:11;;;;;;;0.85;0.40;;;11.40;1.00;;;;;;5123427;27;20442;-61
2024/03/15 05:41:39;;;;;;;0.80;0.40;;;11.40;1.00;;;;;;5113397;27;20421;-61
2024/03/15 05:44:09;;;;;;;0.70;0.40;;;11.40;1.00;;;;;;5122751;27;20427;-62
2024/03/15 05:46:36;;;;;;;1.70;0.30;;;11.40;1.00;;;;;;5114991;27;20489;-61
2024/03/15 05:49:03;;;;;;;0.73;0.40;;;11.30;1.00;;;;;;5112546;27;20417;-62
2024/03/15 05:51:32;;;;;;;0.90;0.40;;;11.30;1.00;;;;;;5113828;27;20409;-61
2024/03/15 05:53:59;;;;;;;0.70;0.40;;;11.30;1.00;;;;;;5113930;27;20423;-61
2024/03/15 05:56:26;;;;;;;0.60;0.40;;;11.30;1.00;;;;;;5119012;27;20432;-61
2024/03/15 05:58:53;;;;;;;0.60;0.40;;;11.30;1.00;;;;;;5112700;27;20445;-61
2024/03/15 06:01:20;;;;;;;0.90;0.40;;;11.30;1.00;;;;;;5112498;27;21035;-62
2024/03/15 06:03:50;;;;;;;1.30;0.40;;;11.20;1.00;;;;;;5112776;27;20396;-61
2024/03/15 06:06:17;;;;;;;2.10;0.50;;;11.20;1.00;;;;;;5119472;27;20751;-61
2024/03/15 06:08:44;;;;;;;0.90;0.40;;;11.20;1.00;;;;;;5103596;27;20425;-61
2024/03/15 06:11:12;;;;;;;0.75;0.40;;;11.20;1.00;;;;;;5113224;27;20425;-59
2024/03/15 06:13:39;;;;;;;0.60;0.40;;;11.20;1.00;;;;;;5111772;27;20532;-60
2024/03/15 06:16:10;;;;;;;0.80;0.50;;;11.20;1.00;;;;;;5114786;27;20409;-61
2024/03/15 06:18:37;;;;;;;0.90;0.40;;;11.20;1.00;;;;;;5115155;27;20452;-60
2024/03/15 06:21:06;;;;;;;0.55;0.30;;;11.20;1.00;;;;;;5121236;27;20507;-60
2024/03/15 06:23:33;;;;;;;0.90;0.40;;;11.20;15.70;;;;;;5114416;27;20446;-59
2024/03/15 06:26:02;;;;;;;0.80;0.50;;;11.20;1.00;;;;;;5116165;27;20696;-61
2024/03/15 06:28:31;;;;;;;1.30;0.40;;;11.20;1.00;;;;;;5110609;27;20453;-61
2024/03/15 06:30:58;;;;;;;0.73;0.50;;;11.20;1.00;;;;;;5122109;27;20415;-61
2024/03/15 06:33:31;;;;;;;0.80;0.40;;;11.20;1.00;;;;;;5105793;27;20432;-61
2024/03/15 06:36:00;;;;;;;0.75;0.50;;;11.20;1.00;;;;;;5113880;27;20419;-60
2024/03/15 06:38:40;;;;;;;0.60;0.40;;;11.20;1.00;;;;;;5120851;27;20416;-61
2024/03/15 06:41:14;;;;;;;1.37;0.40;;;11.20;1.00;;;;;;5123987;27;20841;-62
2024/03/15 06:43:42;;;;;;;1.30;0.50;;;11.20;1.00;;;;;;5123061;27;20498;-61
2024/03/15 06:46:19;;;;;;;0.85;0.50;;;11.10;1.00;;;;;;5121775;27;20477;-61
2024/03/15 06:48:55;;;;;;;0.93;0.40;;;11.10;1.00;;;;;;5125622;27;20440;-61
2024/03/15 06:54:08;;;;;;;1.60;0.40;;;11.20;1.00;;;;;;5128040;27;20419;-61
2024/03/15 06:56:36;;;;;;;1.80;0.40;;;11.20;1.00;;;;;;5122317;27;20420;-61
2024/03/15 06:59:03;;;;;;;1.80;0.40;;;11.20;1.00;;;;;;5122917;27;20817;-61
2024/03/15 07:01:31;;;;;;;0.80;0.50;;;11.30;1.00;;;;;;5123281;27;20408;-61
2024/03/15 07:03:58;;;;;;;0.60;0.30;;;11.40;1.00;;;;;;5122591;27;20468;-61
2024/03/15 07:06:27;;;;;;;0.70;0.50;;;11.40;99.90;;;;;;5123044;27;20431;-61
2024/03/15 07:08:57;;;;;;;2.90;0.60;;;11.50;99.90;;;;;;5119090;27;20422;-61
2024/03/15 07:11:29;;;;;;;1.00;0.40;;;11.50;99.90;;;;;;5102763;28;20430;-61
2024/03/15 07:13:57;;;;;;;1.90;0.50;;;11.50;99.90;;;;;;5108872;27;20467;-62
2024/03/15 07:16:26;;;;;;;0.80;0.40;;;11.60;99.90;;;;;;5121420;27;20496;-62
2024/03/15 07:18:55;;;;;;;1.23;0.60;;;11.60;1.00;;;;;;5122520;27;20417;-62
2024/03/15 07:21:23;;;;;;;0.70;0.40;;;11.80;99.00;;;;;;5117811;27;20493;-62
2024/03/15 07:23:50;;;;;;;0.70;0.40;;;11.90;99.90;;;;;;5115021;27;20414;-60
2024/03/15 07:26:17;;;;;;;0.82;0.40;;;12.00;99.90;;;;;;5127835;27;20741;-60
2024/03/15 07:28:45;;;;;;;1.00;0.40;;;12.00;99.90;;;;;;5107240;27;20782;-61
2024/03/15 07:31:12;;;;;;;1.50;1.10;;;12.10;99.90;;;;;;5111882;27;20452;-60
2024/03/15 07:33:39;;;;;;;0.80;0.40;;;12.20;99.90;;;;;;5112755;27;20461;-60
2024/03/15 07:36:07;;;;;;;0.60;0.40;;;12.40;99.90;;;;;;5119935;27;20401;-61
2024/03/15 07:38:36;;;;;;;1.10;0.40;;;12.40;99.90;;;;;;5108504;27;20437;-60
2024/03/15 07:41:03;;;;;;;0.90;0.50;;;12.50;99.90;;;;;;5118859;27;20920;-61
2024/03/15 07:43:32;;;;;;;0.70;0.50;;;12.60;99.90;;;;;;5115987;27;20420;-60
2024/03/15 07:45:59;;;;;;;0.68;0.40;;;12.70;99.90;;;;;;5114766;27;20818;-60
2024/03/15 07:48:27;;;;;;;0.60;0.40;;;12.70;99.90;;;;;;5114488;27;20423;-61
2024/03/15 07:50:54;;;;;;;0.80;0.50;;;12.80;99.90;;;;;;5114028;27;20418;-60
2024/03/15 07:53:21;;;;;;;1.08;0.40;;;12.90;99.90;;;;;;5115922;27;20800;-60
2024/03/15 07:55:50;;;;;;;1.10;0.40;;;13.00;99.90;;;;;;5117795;27;20501;-60
2024/03/15 07:58:17;;;;;;;0.80;0.50;;;13.20;99.90;;;;;;5113026;27;20422;-60
2024/03/15 08:00:44;;;;;;;0.57;0.40;;;13.30;99.90;;;;;;5111100;27;20429;-60
2024/03/15 08:03:11;;;;;;;1.10;0.35;;;13.40;99.90;;;;;;5127146;27;20469;-60
2024/03/15 08:05:39;;;;;;;0.90;0.40;;;13.50;99.90;;;;;;5120621;27;20529;-60
2024/03/15 08:08:06;;;;;;;0.70;0.40;;;13.70;99.90;;;;;;5109711;27;20503;-60
2024/03/15 08:10:33;;;;;;;1.40;0.60;;;13.80;99.90;;;;;;5115808;27;20440;-60
2024/03/15 08:13:00;;;;;;;0.80;0.40;;;13.90;99.90;;;;;;5124681;27;20759;-60
2024/03/15 08:15:32;;;;;;;0.70;0.40;;;14.00;99.90;;;;;;5125866;27;20444;-60
2024/03/15 08:17:59;;;;;;;0.60;0.40;;;14.00;99.90;;;;;;5126400;27;20416;-60
2024/03/15 08:20:26;;;;;;;0.70;0.40;;;14.10;99.90;;;;;;5125354;27;20493;-61
2024/03/15 08:22:55;;;;;;;1.70;0.45;;;14.20;99.90;;;;;;5125448;27;20412;-60
2024/03/15 08:25:22;;;;;;;1.00;0.50;;;14.20;99.90;;;;;;5112023;27;20408;-60
2024/03/15 08:27:50;;;;;;;0.90;0.50;;;14.20;99.90;;;;;;5121096;27;20830;-60
2024/03/15 08:30:17;;;;;;;1.00;0.50;;;14.30;99.90;;;;;;5113048;27;20973;-61
2024/03/15 08:32:45;;;;;;;0.60;0.40;;;14.40;99.90;;;;;;5124442;27;20515;-61
2024/03/15 08:35:14;;;;;;;1.05;0.50;;;14.40;99.90;;;;;;5122413;27;20439;-61
2024/03/15 08:37:43;;;;;;;0.93;0.60;;;14.50;99.90;;;;;;5120253;27;20791;-61
2024/03/15 08:40:12;;;;;;;1.30;0.70;;;14.50;99.90;;;;;;5116321;27;20434;-60
2024/03/15 08:42:40;;;;;;;0.90;0.50;;;14.60;99.90;;;;;;5109235;27;20417;-62
2024/03/15 08:45:08;;;;;;;0.60;0.40;;;14.70;99.90;;;;;;5121988;27;20409;-60
2024/03/15 08:47:39;;;;;;;0.70;0.40;;;14.70;99.90;;;;;;5131668;27;20758;-58
2024/03/15 08:50:08;;;;;;;0.70;0.50;;;14.80;99.90;;;;;;5123680;27;20408;-59
2024/03/15 08:52:39;;;;;;;0.77;0.40;;;15.00;99.90;;;;;;5123635;27;20864;-59
2024/03/15 08:55:08;;;;;;;0.90;0.40;;;15.00;99.90;;;;;;5124002;27;20859;-58
2024/03/15 08:57:36;;;;;;;0.50;0.30;;;15.10;99.90;;;;;;5122530;27;20446;-59
2024/03/15 09:00:06;;;;;;;1.27;0.30;;;15.20;99.90;;;;;;5115334;27;20841;-59
2024/03/15 09:02:33;;;;;;;0.70;0.40;;;15.30;99.90;;;;;;5118967;27;20543;-59
2024/03/15 09:05:01;;;;;;;0.77;0.40;;;15.40;99.90;;;;;;5117960;27;20741;-59
2024/03/15 09:07:31;;;;;;;0.70;0.40;;;15.50;99.90;;;;;;5137453;27;20482;-59
2024/03/15 09:09:58;;;;;;;0.80;0.30;;;15.60;99.90;;;;;;5134674;27;20422;-59
2024/03/15 09:12:25;;;;;;;1.10;0.30;;;15.70;99.90;;;;;;5118236;27;20439;-59
2024/03/15 09:14:54;;;;;;;1.00;0.40;;;15.80;99.90;;;;;;5132620;27;20499;-60
2024/03/15 09:17:21;;;;;;;1.20;0.60;;;15.80;99.90;;;;;;5131401;27;20485;-60
2024/03/15 09:19:48;;;;;;;0.60;0.40;;;15.90;99.90;;;;;;5118691;27;20466;-59
2024/03/15 09:22:16;;;;;;;0.60;0.40;;;16.00;99.90;;;;;;5133102;27;20701;-58
2024/03/15 09:24:43;;;;;;;0.50;0.30;;;16.10;99.90;;;;;;5124055;27;20987;-57
2024/03/15 09:27:11;;;;;;;1.10;0.40;;;16.10;99.90;;;;;;5123207;27;20492;-58
2024/03/15 09:29:39;;;;;;;1.40;0.30;;;16.20;99.90;;;;;;5101875;28;20416;-57
2024/03/15 09:32:06;;;;;;;0.67;0.40;;;16.30;99.90;;;;;;5100254;28;20736;-57
2024/03/15 09:34:35;;;;;;;0.60;0.30;;;16.40;99.90;;;;;;5103553;27;20491;-58
2024/03/15 09:37:06;;;;;;;0.60;0.32;;;16.50;99.90;;;;;;5138241;27;20746;-57
2024/03/15 09:39:33;;;;;;;1.00;0.30;;;16.70;99.90;;;;;;5137504;27;20414;-57
2024/03/15 09:42:01;;;;;;;0.63;0.40;;;16.80;99.90;;;;;;5137125;27;20790;-57
2024/03/15 09:44:28;;;;;;;1.77;0.38;;;16.90;99.90;;;;;;5127832;27;20445;-57
2024/03/15 09:46:55;;;;;;;0.93;0.30;;;16.90;99.90;;;;;;5136972;27;20479;-57
2024/03/15 09:49:22;;;;;;;1.50;0.30;;;17.10;99.90;;;;;;5119374;27;20477;-58
2024/03/15 09:51:51;;;;;;;0.75;0.40;;;17.20;99.90;;;;;;5099614;28;20813;-58
2024/03/15 09:54:18;;;;;;;0.80;0.40;;;17.20;99.90;;;;;;5100717;28;20463;-57
2024/03/15 09:56:45;;;;;;;0.60;0.40;;;17.30;99.90;;;;;;5099834;28;20800;-57
2024/03/15 09:59:13;;;;;;;0.73;0.40;;;17.60;99.90;;;;;;5100066;28;20806;-57
2024/03/15 10:01:42;;;;;;;0.80;0.40;;;18.10;99.90;;;;;;5099668;28;20436;-58
2024/03/15 10:04:09;;;;;;;0.80;0.40;;;18.30;99.90;;;;;;5099259;28;20439;-58
2024/03/15 10:06:36;;;;;;;1.60;0.40;;;18.30;99.90;;;;;;5099741;28;20420;-58
2024/03/15 10:09:04;;;;;;;1.60;0.40;;;18.00;99.90;;;;;;5099700;28;20416;-58
2024/03/15 10:11:31;;;;;;;1.20;0.40;;;17.70;99.90;;;;;;5098769;28;20420;-58
2024/03/15 10:13:59;;;;;;;1.00;0.30;;;17.30;99.90;;;;;;5099319;28;20471;-57
2024/03/15 10:16:28;;;;;;;0.60;0.40;;;17.20;99.90;;;;;;5099538;28;20523;-57
2024/03/15 10:18:55;;;;;;;0.50;0.30;;;17.20;99.90;;;;;;5099233;28;20510;-57
2024/03/15 10:21:22;;;;;;;0.50;0.30;;;17.10;99.90;;;;;;5105880;27;20499;-58
2024/03/15 10:23:49;;;;;;;0.80;0.30;;;17.10;99.90;;;;;;5120829;27;20746;-58
2024/03/15 10:26:16;;;;;;;0.50;0.30;;;17.00;99.90;;;;;;5134708;27;20717;-58
2024/03/15 10:28:43;;;;;;;0.40;0.20;;;17.00;99.90;;;;;;5129227;27;20678;-58
2024/03/15 10:31:12;;;;;;;1.60;0.30;;;17.00;99.90;;;;;;5106868;28;20431;-58
2024/03/15 10:33:39;;;;;;;0.47;0.20;;;16.80;99.90;;;;;;5114655;27;20407;-58
2024/03/15 10:36:08;;;;;;;0.50;0.30;;;16.70;99.90;;;;;;5107288;27;20416;-58
2024/03/15 10:38:36;;;;;;;0.50;0.30;;;16.70;99.90;;;;;;5129117;27;20420;-58
2024/03/15 10:41:03;;;;;;;0.60;0.30;;;16.80;99.90;;;;;;5121158;27;20450;-58
2024/03/15 10:43:30;;;;;;;0.93;0.50;;;16.90;99.90;;;;;;5129582;27;20449;-58
2024/03/15 10:45:58;;;;;;;0.60;0.30;;;17.00;99.90;;;;;;5110362;27;20438;-58
2024/03/15 10:48:26;;;;;;;0.50;0.30;;;16.90;99.90;;;;;;5117927;27;20466;-57
2024/03/15 10:50:53;;;;;;;0.70;0.30;;;16.90;99.90;;;;;;5118473;27;20422;-59
2024/03/15 10:53:20;;;;;;;0.60;0.28;;;17.00;99.90;;;;;;5134861;27;20880;-59
2024/03/15 10:55:49;;;;;;;0.52;0.30;;;17.10;99.90;;;;;;5119085;27;20482;-58
2024/03/15 10:58:16;;;;;;;0.90;0.30;;;17.00;99.90;;;;;;5120154;27;20507;-59
2024/03/15 11:00:45;;;;;;;0.40;0.20;;;16.90;99.90;;;;;;5118506;27;20426;-59
2024/03/15 11:03:13;;;;;;;0.60;0.30;;;16.70;99.90;;;;;;5101825;27;20434;-59
2024/03/15 11:05:41;;;;;;;0.70;0.30;;;16.70;99.90;;;;;;5117737;27;20434;-59
2024/03/15 11:08:08;;;;;;;0.80;0.30;;;16.60;99.90;;;;;;5134803;27;20479;-59
2024/03/15 11:10:36;;;;;;;0.40;0.30;;;16.70;99.90;;;;;;5117603;27;20491;-59
2024/03/15 11:13:03;;;;;;;0.47;0.30;;;16.80;99.90;;;;;;5116723;27;20519;-59
2024/03/15 11:15:30;;;;;;;0.57;0.30;;;16.70;99.90;;;;;;5134572;27;20767;-59
2024/03/15 11:18:03;;;;;;;1.20;0.33;;;16.70;99.90;;;;;;5134364;27;20419;-58
2024/03/15 11:20:44;;;;;;;0.70;0.40;;;16.80;99.90;;;;;;5134384;27;20438;-58
2024/03/15 11:23:12;;;;;;;0.90;0.30;;;16.80;99.90;;;;;;5135014;27;21041;-58
2024/03/15 11:25:41;;;;;;;0.80;0.30;;;17.10;99.90;;;;;;5136190;28;20448;-59
2024/03/15 11:28:08;;;;;;;0.90;0.30;;;17.20;99.90;;;;;;5133204;28;20414;-58
2024/03/15 11:30:35;;;;;;;0.70;0.30;;;17.30;99.90;;;;;;5134376;28;20753;-58
2024/03/15 11:33:02;;;;;;;0.80;0.40;;;17.30;99.90;;;;;;5117389;28;20414;-58
2024/03/15 11:35:30;;;;;;;0.80;0.40;;;17.50;99.90;;;;;;5117983;28;20510;-58
2024/03/15 11:37:57;;;;;;;0.90;0.40;;;17.50;99.90;;;;;;5136293;28;20488;-58
2024/03/15 11:40:25;;;;;;;0.60;0.30;;;17.70;99.90;;;;;;5118597;28;20430;-58
2024/03/15 11:42:52;;;;;;;0.50;0.30;;;17.70;99.90;;;;;;5117617;28;20482;-58
2024/03/15 11:45:20;;;;;;;0.70;0.30;;;17.60;99.90;;;;;;5118757;27;20421;-60
2024/03/15 11:47:47;;;;;;;0.50;0.30;;;17.50;99.90;;;;;;5123130;27;20433;-60
2024/03/15 11:50:14;;;;;;;1.10;0.30;;;17.50;99.90;;;;;;5119294;27;20409;-59
2024/03/15 11:52:41;;;;;;;0.90;0.40;;;17.50;99.90;;;;;;5117985;27;20420;-59
2024/03/15 11:55:11;;;;;;;1.30;0.47;;;17.50;99.90;;;;;;5121131;27;20410;-60
2024/03/15 11:57:39;;;;;;;0.63;0.30;;;17.50;99.90;;;;;;5121568;27;20410;-59
2024/03/15 12:00:09;;;;;;;1.80;0.40;;;17.40;99.90;;;;;;5119024;27;20589;-60
2024/03/15 12:02:38;;;;;;;0.70;0.40;;;17.50;99.90;;;;;;5121232;27;20715;-59
2024/03/15 12:05:07;;;;;;;0.75;0.30;;;17.60;99.90;;;;;;5116291;28;20455;-58
2024/03/15 12:07:34;;;;;;;0.65;0.38;;;17.40;99.90;;;;;;5116330;28;20480;-58
2024/03/15 12:10:03;;;;;;;0.60;0.30;;;17.30;99.90;;;;;;5116616;28;20510;-59
2024/03/15 12:12:31;;;;;;;12.73;6.93;;;17.30;99.90;;;;;;5117597;28;20759;-58
2024/03/15 12:14:58;;;;;;;0.80;0.40;;;17.30;99.90;;;;;;5117630;27;20488;-58
2024/03/15 12:17:26;;;;;;;0.70;0.40;;;17.30;99.90;;;;;;5116612;27;20477;-58
2024/03/15 12:19:56;;;;;;;0.80;0.40;;;17.30;99.90;;;;;;5116257;27;20432;-58
2024/03/15 12:22:24;;;;;;;1.00;0.60;;;17.40;99.90;;;;;;5120705;27;20426;-59
2024/03/15 12:24:51;;;;;;;0.90;0.50;;;17.40;99.90;;;;;;5121643;27;20434;-58
2024/03/15 12:27:18;;;;;;;0.60;0.40;;;17.50;99.90;;;;;;5120588;27;20418;-58
2024/03/15 12:29:45;;;;;;;0.60;0.40;;;17.50;99.90;;;;;;5121994;27;20489;-58
2024/03/15 12:32:13;;;;;;;0.60;0.30;;;17.60;99.90;;;;;;5120296;27;20889;-59
2024/03/15 12:34:40;;;;;;;0.80;0.30;;;17.50;99.90;;;;;;5117635;28;20443;-59
2024/03/15 12:37:08;;;;;;;0.70;0.30;;;17.50;99.90;;;;;;5117055;28;20413;-59
2024/03/15 12:39:35;;;;;;;0.60;0.30;;;17.60;99.90;;;;;;5118354;27;20809;-58
2024/03/15 12:42:02;;;;;;;0.90;0.30;;;17.60;99.90;;;;;;5116574;28;20459;-59
2024/03/15 12:44:29;;;;;;;0.50;0.28;;;17.70;99.90;;;;;;5116327;28;20800;-58
2024/03/15 12:46:56;;;;;;;0.60;0.30;;;17.70;99.90;;;;;;5116060;28;20432;-58
2024/03/15 12:49:23;;;;;;;0.50;0.30;;;17.70;99.90;;;;;;5106852;27;20818;-58
2024/03/15 12:51:50;;;;;;;0.50;0.30;;;17.60;99.90;;;;;;5117343;27;20404;-59
2024/03/15 12:54:17;;;;;;;1.00;0.30;;;17.60;99.90;;;;;;5100441;28;20427;-59
2024/03/15 12:56:46;;;;;;;0.50;0.30;;;17.70;99.90;;;;;;5099984;28;20416;-59